Private Wetterstation Wechselburg
Wetterdaten: Woche 24.07.23 - 30.07.23 (KW30)
Datum Zeit Temp. +2m Bodentemp. Temp.+5cm Temp. Wind Windchill X Diff Temp. Feuchte +2m Feuchte +5cm Luftdruck Regen Wind Richtung Sonnenschein Taupunkt Windchill Windben
24.07.2023 00:00 20,4 C 19,5 C 19,2 C 20,2 C 20,0 C 0,0 C 63 % 61 % 1010,5 hPa 0,0 l/m 0,0 km/h (0 Bft) N 0,00 h 13,1 C 20,0 C 0,0 km/h (0 Bft)
24.07.2023 01:00 19,4 C 19,5 C 18,3 C 19,1 C 18,6 C 0,0 C 66 % 63 % 1010,2 hPa 0,0 l/m 0,0 km/h (0 Bft) N 0,00 h 12,9 C 18,6 C 0,0 km/h (0 Bft)
24.07.2023 02:00 18,6 C 19,4 C 18,0 C 18,4 C 17,9 C 0,0 C 71 % 66 % 1009,7 hPa 0,0 l/m 0,0 km/h (0 Bft) N 0,00 h 13,2 C 17,9 C 0,0 km/h (0 Bft)
24.07.2023 03:00 18,8 C 19,4 C 18,2 C 18,8 C 18,8 C 0,0 C 70 % 65 % 1009,4 hPa 0,0 l/m 0,0 km/h (0 Bft) N 0,00 h 13,2 C 18,8 C 0,2 km/h (0 Bft)
24.07.2023 04:00 19,6 C 19,3 C 18,7 C 19,5 C 19,4 C 0,0 C 65 % 61 % 1009,0 hPa 0,0 l/m 0,1 km/h (0 Bft) N 0,00 h 12,7 C 19,4 C 0,9 km/h (0 Bft)
24.07.2023 05:00 19,9 C 19,2 C 18,9 C 19,8 C 19,7 C 0,0 C 63 % 59 % 1008,7 hPa 0,0 l/m 0,1 km/h (0 Bft) N 0,00 h 12,5 C 19,7 C 0,4 km/h (0 Bft)
24.07.2023 06:00 20,5 C 19,2 C 19,6 C 20,7 C 20,7 C 0,2 C 60 % 57 % 1008,4 hPa 0,0 l/m 0,3 km/h (0 Bft) N 0,00 h 12,6 C 20,7 C 1,0 km/h (0 Bft)
24.07.2023 07:00 21,3 C 19,2 C 20,7 C 22,7 C 22,7 C 1,4 C 59 % 54 % 1008,2 hPa 0,0 l/m 0,6 km/h (0 Bft) SO 0,17 h 12,9 C 22,7 C 4,1 km/h (1 Bft)
24.07.2023 08:00 22,5 C 19,2 C 21,9 C 25,5 C 25,5 C 2,9 C 56 % 52 % 1008,3 hPa 0,0 l/m 1,0 km/h (0 Bft) SO 0,18 h 13,3 C 25,5 C 2,9 km/h (1 Bft)
24.07.2023 09:00 23,2 C 19,2 C 22,7 C 25,5 C 25,5 C 2,2 C 57 % 54 % 1007,9 hPa 0,0 l/m 0,4 km/h (0 Bft) N 0,00 h 14,1 C 25,5 C 0,9 km/h (0 Bft)
24.07.2023 10:00 24,8 C 19,3 C 24,2 C 27,8 C 27,8 C 2,9 C 55 % 53 % 1007,2 hPa 0,0 l/m 0,3 km/h (0 Bft) N 0,18 h 15,1 C 27,8 C 0,0 km/h (0 Bft)
24.07.2023 11:00 25,9 C 19,4 C 25,2 C 28,5 C 28,5 C 2,7 C 54 % 52 % 1007,3 hPa 0,0 l/m 0,7 km/h (0 Bft) S 0,00 h 15,7 C 28,5 C 0,7 km/h (0 Bft)
24.07.2023 12:00 24,6 C 19,6 C 22,3 C 25,0 C 24,5 C 0,7 C 63 % 73 % 1007,2 hPa 0,0 l/m 0,1 km/h (0 Bft) N 0,00 h 17,1 C 24,5 C 0,9 km/h (0 Bft)
24.07.2023 13:00 26,0 C 19,8 C 23,9 C 28,6 C 28,6 C 2,7 C 60 % 69 % 1006,2 hPa 0,0 l/m 0,3 km/h (0 Bft) SO 0,42 h 17,6 C 28,6 C 0,7 km/h (0 Bft)
24.07.2023 14:00 25,3 C 19,9 C 25,1 C 27,6 C 27,6 C 2,3 C 58 % 57 % 1005,8 hPa 0,0 l/m 4,1 km/h (1 Bft) S-SO 0,48 h 16,4 C 27,6 C 15,3 km/h (3 Bft)
24.07.2023 15:00 24,9 C 19,9 C 24,8 C 27,1 C 27,1 C 2,2 C 60 % 57 % 1005,3 hPa 0,0 l/m 3,2 km/h (1 Bft) S 0,00 h 16,6 C 27,1 C 5,6 km/h (1 Bft)
24.07.2023 16:00 25,6 C 20,1 C 25,7 C 27,8 C 27,8 C 2,2 C 60 % 57 % 1004,1 hPa 0,0 l/m 2,7 km/h (1 Bft) SW 0,00 h 17,1 C 27,8 C 3,2 km/h (1 Bft)
24.07.2023 17:00 26,5 C 20,2 C 26,6 C 28,0 C 28,0 C 1,5 C 53 % 50 % 1003,2 hPa 0,0 l/m 2,5 km/h (1 Bft) O-NO 0,00 h 16,2 C 28,0 C 3,7 km/h (1 Bft)
24.07.2023 18:00 26,3 C 20,3 C 25,9 C 26,8 C 26,8 C 0,5 C 52 % 49 % 1003,2 hPa 0,0 l/m 2,0 km/h (1 Bft) S 0,00 h 15,7 C 26,8 C 3,7 km/h (1 Bft)
24.07.2023 19:00 25,8 C 20,4 C 25,1 C 25,8 C 25,7 C 0,0 C 52 % 48 % 1003,1 hPa 0,0 l/m 2,5 km/h (1 Bft) S 0,00 h 15,0 C 25,7 C 4,7 km/h (1 Bft)
24.07.2023 20:00 21,6 C 20,6 C 19,8 C 20,9 C 19,7 C 0,0 C 64 % 67 % 1004,2 hPa 0,7 l/m 0,3 km/h (0 Bft) N 0,00 h 14,4 C 19,7 C 1,6 km/h (1 Bft)
24.07.2023 21:00 18,2 C 20,9 C 17,1 C 17,7 C 16,5 C 0,0 C 79 % 86 % 1004,8 hPa 0,0 l/m 0,0 km/h (0 Bft) N 0,00 h 14,5 C 16,5 C 0,0 km/h (0 Bft)
24.07.2023 22:00 17,3 C 20,7 C 16,4 C 16,8 C 16,0 C 0,0 C 83 % 90 % 1005,0 hPa 2,1 l/m 0,4 km/h (0 Bft) S 0,00 h 14,4 C 16,0 C 1,2 km/h (1 Bft)
24.07.2023 23:00 16,7 C 20,7 C 15,9 C 16,3 C 15,6 C 0,0 C 86 % 90 % 1005,4 hPa 0,0 l/m 0,0 km/h (0 Bft) N 0,00 h 14,2 C 15,6 C 0,0 km/h (0 Bft)
25.07.2023 00:00 16,3 C 20,5 C 15,6 C 16,0 C 15,3 C 0,0 C 86 % 90 % 1005,3 hPa 0,0 l/m 0,0 km/h (0 Bft) N 0,00 h 14,0 C 15,3 C 0,0 km/h (0 Bft)
25.07.2023 01:00 16,0 C 20,4 C 15,5 C 15,7 C 15,2 C 0,0 C 87 % 90 % 1005,7 hPa 0,0 l/m 0,0 km/h (0 Bft) N 0,00 h 13,8 C 15,2 C 0,0 km/h (0 Bft)
25.07.2023 02:00 15,5 C 20,2 C 15,0 C 15,2 C 14,6 C 0,0 C 87 % 90 % 1005,8 hPa 0,0 l/m 0,1 km/h (0 Bft) N 0,00 h 13,3 C 14,6 C 0,9 km/h (0 Bft)
25.07.2023 03:00 14,9 C 20,1 C 14,4 C 14,6 C 14,0 C 0,0 C 87 % 90 % 1006,1 hPa 0,0 l/m 0,1 km/h (0 Bft) N 0,00 h 12,7 C 14,0 C 0,2 km/h (0 Bft)
25.07.2023 04:00 14,3 C 19,9 C 14,1 C 14,1 C 13,7 C 0,0 C 88 % 90 % 1005,7 hPa 0,0 l/m 0,0 km/h (0 Bft) N 0,00 h 12,4 C 13,7 C 0,0 km/h (0 Bft)
25.07.2023 05:00 13,9 C 19,9 C 13,7 C 13,7 C 13,3 C 0,0 C 88 % 90 % 1006,2 hPa 0,0 l/m 0,0 km/h (0 Bft) N 0,00 h 11,9 C 13,3 C 0,0 km/h (0 Bft)
25.07.2023 06:00 13,7 C 19,7 C 14,2 C 14,1 C 14,0 C 0,4 C 88 % 90 % 1005,7 hPa 0,0 l/m 0,0 km/h (0 Bft) N 0,00 h 11,7 C 14,0 C 0,0 km/h (0 Bft)
25.07.2023 07:00 14,1 C 19,5 C 15,0 C 17,5 C 17,5 C 3,4 C 88 % 90 % 1006,4 hPa 0,0 l/m 0,0 km/h (0 Bft) N 0,58 h 12,1 C 17,5 C 0,0 km/h (0 Bft)
25.07.2023 08:00 15,1 C 19,2 C 15,5 C 18,3 C 18,3 C 3,2 C 88 % 90 % 1006,6 hPa 0,0 l/m 0,0 km/h (0 Bft) N 0,25 h 13,1 C 18,3 C 0,6 km/h (0 Bft)
25.07.2023 09:00 16,6 C 19,1 C 16,3 C 19,2 C 19,2 C 2,6 C 87 % 90 % 1006,3 hPa 0,0 l/m 0,0 km/h (0 Bft) N 0,00 h 14,4 C 19,2 C 0,0 km/h (0 Bft)
25.07.2023 10:00 18,0 C 18,9 C 17,4 C 23,8 C 23,8 C 5,8 C 82 % 86 % 1006,0 hPa 0,0 l/m 0,0 km/h (0 Bft) N 0,92 h 14,8 C 23,8 C 0,0 km/h (0 Bft)
25.07.2023 11:00 19,4 C 18,9 C 18,7 C 24,7 C 24,7 C 5,3 C 75 % 79 % 1006,0 hPa 0,0 l/m 0,0 km/h (0 Bft) N 1,00 h 14,8 C 24,7 C 0,0 km/h (0 Bft)
25.07.2023 12:00 20,2 C 18,8 C 19,3 C 23,2 C 23,2 C 3,1 C 71 % 73 % 1005,6 hPa 0,0 l/m 0,0 km/h (0 Bft) N 0,25 h 14,7 C 23,2 C 0,0 km/h (0 Bft)
25.07.2023 13:00 19,4 C 18,9 C 18,2 C 20,3 C 20,0 C 1,0 C 71 % 73 % 1005,7 hPa 0,7 l/m 0,0 km/h (0 Bft) N 0,00 h 14,1 C 20,0 C 0,0 km/h (0 Bft)
25.07.2023 14:00 17,9 C 19,2 C 16,1 C 17,3 C 16,1 C 0,0 C 79 % 89 % 1005,8 hPa 1,4 l/m 0,0 km/h (0 Bft) N 0,00 h 14,2 C 16,1 C 0,0 km/h (0 Bft)
25.07.2023 15:00 16,8 C 19,3 C 15,6 C 16,5 C 15,9 C 0,0 C 83 % 90 % 1005,7 hPa 3,4 l/m 0,0 km/h (0 Bft) N 0,00 h 13,9 C 15,9 C 0,0 km/h (0 Bft)
25.07.2023 16:00 16,9 C 19,3 C 15,9 C 17,0 C 16,9 C 0,1 C 86 % 90 % 1005,6 hPa 0,0 l/m 0,0 km/h (0 Bft) N 0,00 h 14,5 C 16,9 C 0,0 km/h (0 Bft)
25.07.2023 17:00 16,7 C 19,3 C 15,8 C 16,7 C 16,6 C 0,1 C 86 % 90 % 1005,6 hPa 0,7 l/m 0,0 km/h (0 Bft) N 0,00 h 14,4 C 16,6 C 0,0 km/h (0 Bft)
25.07.2023 18:00 15,4 C 19,3 C 14,6 C 15,2 C 14,8 C 0,0 C 87 % 90 % 1005,8 hPa 3,4 l/m 0,1 km/h (0 Bft) N 0,00 h 13,2 C 14,8 C 0,9 km/h (0 Bft)
25.07.2023 19:00 14,1 C 19,2 C 13,8 C 14,1 C 13,9 C 0,0 C 88 % 90 % 1006,2 hPa 0,7 l/m 0,8 km/h (0 Bft) SO 0,00 h 12,2 C 13,9 C 2,4 km/h (1 Bft)
25.07.2023 20:00 13,3 C 19,0 C 13,5 C 13,4 C 13,4 C 0,0 C 88 % 90 % 1007,1 hPa 0,7 l/m 0,0 km/h (0 Bft) N 0,00 h 11,4 C 13,4 C 0,0 km/h (0 Bft)
25.07.2023 21:00 13,2 C 18,9 C 13,6 C 13,3 C 13,3 C 0,1 C 88 % 90 % 1007,8 hPa 0,7 l/m 0,0 km/h (0 Bft) N 0,00 h 11,3 C 13,3 C 0,0 km/h (0 Bft)
25.07.2023 22:00 13,0 C 18,8 C 13,5 C 13,2 C 13,2 C 0,2 C 88 % 90 % 1008,3 hPa 0,0 l/m 0,0 km/h (0 Bft) N 0,00 h 11,0 C 13,2 C 0,0 km/h (0 Bft)
25.07.2023 23:00 12,8 C 18,7 C 13,4 C 13,1 C 13,1 C 0,3 C 88 % 90 % 1008,8 hPa 0,0 l/m 0,0 km/h (0 Bft) N 0,00 h 10,9 C 13,1 C 0,0 km/h (0 Bft)
26.07.2023 00:00 12,5 C 18,6 C 13,1 C 12,8 C 12,7 C 0,2 C 88 % 90 % 1009,2 hPa 0,0 l/m 0,0 km/h (0 Bft) N 0,00 h 10,6 C 12,7 C 0,0 km/h (0 Bft)
26.07.2023 01:00 12,1 C 18,6 C 12,5 C 12,0 C 12,0 C 0,0 C 88 % 90 % 1009,5 hPa 0,0 l/m 0,0 km/h (0 Bft) N 0,00 h 10,1 C 12,0 C 0,0 km/h (0 Bft)
26.07.2023 02:00 11,7 C 18,4 C 12,6 C 12,2 C 12,2 C 0,5 C 88 % 90 % 1010,0 hPa 0,0 l/m 0,0 km/h (0 Bft) N 0,00 h 9,8 C 12,2 C 0,0 km/h (0 Bft)
26.07.2023 03:00 11,6 C 18,4 C 12,7 C 12,3 C 12,3 C 0,7 C 88 % 90 % 1010,2 hPa 0,0 l/m 0,0 km/h (0 Bft) N 0,00 h 9,7 C 12,3 C 0,0 km/h (0 Bft)
26.07.2023 04:00 11,7 C 18,4 C 12,7 C 12,4 C 12,4 C 0,7 C 89 % 90 % 1010,8 hPa 0,0 l/m 0,0 km/h (0 Bft) N 0,00 h 9,9 C 12,4 C 0,0 km/h (0 Bft)
26.07.2023 05:00 11,5 C 18,4 C 12,5 C 12,1 C 12,1 C 0,6 C 89 % 90 % 1011,3 hPa 0,0 l/m 0,0 km/h (0 Bft) N 0,33 h 9,7 C 12,1 C 0,0 km/h (0 Bft)
26.07.2023 06:00 11,1 C 18,1 C 12,2 C 11,9 C 11,9 C 0,8 C 89 % 90 % 1011,9 hPa 0,0 l/m 0,0 km/h (0 Bft) N 0,00 h 9,4 C 11,9 C 0,0 km/h (0 Bft)
26.07.2023 07:00 11,2 C 18,0 C 12,5 C 12,8 C 12,8 C 1,6 C 89 % 90 % 1012,6 hPa 0,0 l/m 0,0 km/h (0 Bft) N 0,00 h 9,4 C 12,8 C 0,0 km/h (0 Bft)
26.07.2023 08:00 11,9 C 17,7 C 13,2 C 19,4 C 19,4 C 7,4 C 89 % 90 % 1013,0 hPa 0,0 l/m 0,0 km/h (0 Bft) N 0,92 h 10,2 C 19,4 C 0,0 km/h (0 Bft)
26.07.2023 09:00 12,1 C 17,3 C 13,5 C 18,9 C 18,9 C 6,8 C 89 % 90 % 1013,2 hPa 0,0 l/m 0,0 km/h (0 Bft) N 1,00 h 10,4 C 18,9 C 0,0 km/h (0 Bft)
26.07.2023 10:00 13,2 C 17,1 C 13,6 C 20,0 C 20,0 C 6,8 C 88 % 90 % 1013,4 hPa 0,0 l/m 0,1 km/h (0 Bft) N 1,00 h 11,3 C 20,0 C 0,5 km/h (0 Bft)
26.07.2023 11:00 15,2 C 17,0 C 14,5 C 20,8 C 20,8 C 5,6 C 80 % 84 % 1013,2 hPa 0,0 l/m 0,1 km/h (0 Bft) N 1,00 h 11,9 C 20,8 C 0,2 km/h (0 Bft)
26.07.2023 12:00 17,0 C 16,8 C 16,8 C 22,7 C 22,7 C 5,7 C 69 % 68 % 1012,9 hPa 0,0 l/m 0,1 km/h (0 Bft) N 1,00 h 11,4 C 22,7 C 0,8 km/h (0 Bft)
26.07.2023 13:00 16,7 C 16,8 C 15,9 C 18,5 C 18,4 C 1,8 C 67 % 63 % 1013,2 hPa 0,0 l/m 0,1 km/h (0 Bft) N 0,08 h 10,5 C 18,4 C 0,2 km/h (0 Bft)
26.07.2023 14:00 14,9 C 16,9 C 14,8 C 15,9 C 15,4 C 1,3 C 79 % 80 % 1013,3 hPa 0,7 l/m 0,0 km/h (0 Bft) N 0,25 h 11,3 C 15,4 C 0,0 km/h (0 Bft)
26.07.2023 15:00 17,4 C 16,7 C 18,7 C 24,3 C 24,3 C 7,0 C 72 % 70 % 1013,2 hPa 0,0 l/m 0,1 km/h (0 Bft) N 1,00 h 12,1 C 24,3 C 0,9 km/h (0 Bft)
26.07.2023 16:00 18,1 C 16,7 C 18,0 C 21,8 C 21,8 C 3,7 C 63 % 59 % 1013,3 hPa 0,0 l/m 0,2 km/h (0 Bft) N 0,50 h 10,9 C 21,8 C 0,9 km/h (0 Bft)
26.07.2023 17:00 18,3 C 16,8 C 18,0 C 19,8 C 19,8 C 1,6 C 63 % 59 % 1013,4 hPa 0,0 l/m 0,1 km/h (0 Bft) N 0,00 h 11,1 C 19,8 C 0,0 km/h (0 Bft)
26.07.2023 18:00 19,3 C 16,8 C 18,7 C 20,5 C 20,5 C 1,3 C 58 % 54 % 1013,5 hPa 0,0 l/m 0,1 km/h (0 Bft) N 0,00 h 10,7 C 20,5 C 0,0 km/h (0 Bft)
26.07.2023 19:00 18,9 C 16,8 C 17,5 C 19,0 C 18,9 C 0,2 C 57 % 56 % 1013,3 hPa 0,0 l/m 0,0 km/h (0 Bft) N 0,00 h 10,1 C 18,9 C 0,0 km/h (0 Bft)
26.07.2023 20:00 17,9 C 16,9 C 16,6 C 18,0 C 17,6 C 0,3 C 61 % 59 % 1013,9 hPa 0,0 l/m 0,1 km/h (0 Bft) N 0,00 h 10,3 C 17,6 C 0,0 km/h (0 Bft)
26.07.2023 21:00 16,2 C 16,9 C 15,1 C 15,8 C 15,0 C 0,0 C 66 % 63 % 1014,4 hPa 0,0 l/m 0,0 km/h (0 Bft) N 0,00 h 9,7 C 15,0 C 0,0 km/h (0 Bft)
26.07.2023 22:00 15,2 C 16,9 C 14,5 C 14,9 C 14,3 C 0,0 C 70 % 65 % 1014,8 hPa 0,0 l/m 0,0 km/h (0 Bft) N 0,00 h 9,7 C 14,3 C 0,0 km/h (0 Bft)
26.07.2023 23:00 14,9 C 17,0 C 14,6 C 14,8 C 14,7 C 0,0 C 71 % 64 % 1015,2 hPa 0,0 l/m 0,4 km/h (0 Bft) SO 0,00 h 9,7 C 14,7 C 0,9 km/h (0 Bft)
27.07.2023 00:00 14,5 C 16,9 C 14,1 C 14,3 C 13,8 C 0,0 C 72 % 64 % 1015,3 hPa 0,0 l/m 0,4 km/h (0 Bft) O-SO 0,00 h 9,6 C 13,8 C 0,0 km/h (0 Bft)
27.07.2023 01:00 13,7 C 16,8 C 13,1 C 13,4 C 12,7 C 0,0 C 75 % 67 % 1015,2 hPa 0,0 l/m 0,1 km/h (0 Bft) N 0,00 h 9,4 C 12,7 C 0,8 km/h (0 Bft)
27.07.2023 02:00 13,1 C 16,8 C 12,7 C 12,8 C 12,2 C 0,0 C 78 % 71 % 1015,2 hPa 0,0 l/m 0,1 km/h (0 Bft) N 0,00 h 9,4 C 12,2 C 0,2 km/h (0 Bft)
27.07.2023 03:00 12,5 C 16,9 C 11,8 C 12,1 C 11,4 C 0,0 C 81 % 74 % 1015,0 hPa 0,0 l/m 0,0 km/h (0 Bft) N 0,00 h 9,3 C 11,4 C 0,0 km/h (0 Bft)
27.07.2023 04:00 11,6 C 17,0 C 10,9 C 11,1 C 10,3 C 0,0 C 83 % 78 % 1014,8 hPa 0,0 l/m 0,0 km/h (0 Bft) N 0,00 h 8,8 C 10,3 C 0,0 km/h (0 Bft)
27.07.2023 05:00 11,1 C 16,9 C 10,6 C 10,7 C 10,0 C 0,0 C 85 % 80 % 1014,8 hPa 0,0 l/m 0,0 km/h (0 Bft) N 0,00 h 8,7 C 10,0 C 0,0 km/h (0 Bft)
27.07.2023 06:00 11,4 C 16,7 C 11,7 C 12,0 C 11,8 C 0,7 C 87 % 81 % 1014,6 hPa 0,0 l/m 0,0 km/h (0 Bft) N 0,00 h 9,2 C 11,8 C 0,0 km/h (0 Bft)
27.07.2023 07:00 13,4 C 16,5 C 14,1 C 15,6 C 15,6 C 2,3 C 87 % 76 % 1014,3 hPa 0,0 l/m 0,0 km/h (0 Bft) N 0,08 h 11,2 C 15,6 C 0,0 km/h (0 Bft)
27.07.2023 08:00 15,6 C 16,4 C 15,5 C 18,0 C 18,0 C 2,4 C 78 % 69 % 1013,8 hPa 0,0 l/m 0,5 km/h (0 Bft) N 0,00 h 11,8 C 18,0 C 1,1 km/h (1 Bft)
27.07.2023 09:00 17,5 C 16,4 C 17,3 C 19,9 C 19,9 C 2,4 C 71 % 65 % 1013,6 hPa 0,0 l/m 0,4 km/h (0 Bft) N 0,00 h 12,1 C 19,9 C 1,0 km/h (0 Bft)
27.07.2023 10:00 18,6 C 16,5 C 18,1 C 20,4 C 20,4 C 1,8 C 66 % 61 % 1013,1 hPa 0,0 l/m 0,2 km/h (0 Bft) N 0,00 h 12,2 C 20,4 C 1,0 km/h (0 Bft)
27.07.2023 11:00 19,8 C 16,6 C 19,4 C 22,8 C 22,8 C 3,0 C 62 % 58 % 1012,6 hPa 0,0 l/m 0,4 km/h (0 Bft) N 0,42 h 12,4 C 22,8 C 1,7 km/h (1 Bft)
27.07.2023 12:00 20,3 C 16,6 C 19,8 C 22,3 C 22,3 C 2,0 C 60 % 55 % 1012,0 hPa 0,0 l/m 0,7 km/h (0 Bft) W-SW 0,00 h 12,3 C 22,3 C 2,1 km/h (1 Bft)
27.07.2023 13:00 19,1 C 16,9 C 17,9 C 19,1 C 18,5 C 0,2 C 69 % 70 % 1011,8 hPa 0,7 l/m 0,3 km/h (0 Bft) N 0,00 h 13,1 C 18,5 C 0,2 km/h (0 Bft)
27.07.2023 14:00 17,8 C 17,3 C 16,4 C 17,4 C 16,4 C 0,0 C 77 % 87 % 1011,0 hPa 0,7 l/m 0,0 km/h (0 Bft) N 0,00 h 13,8 C 16,4 C 0,0 km/h (0 Bft)
27.07.2023 15:00 17,8 C 17,3 C 16,9 C 18,2 C 18,2 C 0,4 C 79 % 90 % 1010,3 hPa 0,0 l/m 0,3 km/h (0 Bft) W-SW 0,00 h 14,2 C 18,2 C 0,8 km/h (0 Bft)
27.07.2023 16:00 17,2 C 17,2 C 16,5 C 17,8 C 17,8 C 0,6 C 80 % 87 % 1009,6 hPa 0,0 l/m 0,1 km/h (0 Bft) S 0,00 h 13,8 C 17,8 C 0,0 km/h (0 Bft)
27.07.2023 17:00 17,8 C 17,2 C 17,2 C 18,6 C 18,6 C 0,8 C 77 % 77 % 1008,9 hPa 0,0 l/m 1,2 km/h (1 Bft) SW 0,00 h 13,6 C 18,6 C 2,3 km/h (1 Bft)
27.07.2023 18:00 17,7 C 17,3 C 17,2 C 18,0 C 17,9 C 0,3 C 78 % 77 % 1008,4 hPa 0,0 l/m 1,0 km/h (0 Bft) N-NO 0,00 h 13,9 C 17,9 C 2,2 km/h (1 Bft)
27.07.2023 19:00 17,5 C 17,3 C 17,2 C 17,7 C 17,7 C 0,2 C 81 % 78 % 1008,3 hPa 0,0 l/m 0,9 km/h (0 Bft) W-SW 0,00 h 14,2 C 17,7 C 0,2 km/h (0 Bft)
27.07.2023 20:00 17,8 C 17,4 C 17,5 C 17,9 C 17,9 C 0,1 C 80 % 76 % 1008,2 hPa 0,0 l/m 0,5 km/h (0 Bft) N 0,00 h 14,3 C 17,9 C 3,3 km/h (1 Bft)
27.07.2023 21:00 17,5 C 17,6 C 17,0 C 17,4 C 17,0 C 0,0 C 82 % 80 % 1008,3 hPa 0,0 l/m 0,8 km/h (0 Bft) N 0,00 h 14,3 C 17,0 C 1,0 km/h (0 Bft)
27.07.2023 22:00 16,6 C 17,9 C 16,0 C 16,3 C 15,7 C 0,0 C 86 % 90 % 1008,1 hPa 0,0 l/m 0,9 km/h (0 Bft) S 0,00 h 14,2 C 15,7 C 1,9 km/h (1 Bft)
27.07.2023 23:00 16,3 C 17,9 C 16,1 C 16,2 C 15,9 C 0,0 C 87 % 90 % 1007,8 hPa 0,7 l/m 1,6 km/h (1 Bft) SW 0,00 h 14,1 C 15,9 C 2,2 km/h (1 Bft)
28.07.2023 00:00 16,4 C 17,9 C 16,3 C 16,4 C 16,3 C 0,0 C 88 % 90 % 1007,3 hPa 0,0 l/m 1,9 km/h (1 Bft) SO 0,00 h 14,4 C 16,3 C 3,7 km/h (1 Bft)
28.07.2023 01:00 16,8 C 17,9 C 16,8 C 17,1 C 17,1 C 0,3 C 87 % 90 % 1007,0 hPa 0,0 l/m 1,8 km/h (1 Bft) S 0,00 h 14,7 C 17,1 C 3,2 km/h (1 Bft)
28.07.2023 02:00 17,2 C 18,0 C 16,8 C 17,1 C 16,8 C 0,0 C 87 % 90 % 1006,6 hPa 0,0 l/m 0,9 km/h (0 Bft) S-SO 0,00 h 15,0 C 16,8 C 2,6 km/h (1 Bft)
28.07.2023 03:00 16,8 C 17,9 C 16,4 C 16,7 C 16,4 C 0,0 C 88 % 90 % 1006,2 hPa 2,1 l/m 2,3 km/h (1 Bft) S-SO 0,00 h 14,8 C 16,4 C 5,5 km/h (1 Bft)
28.07.2023 04:00 16,3 C 18,0 C 16,3 C 16,3 C 16,3 C 0,1 C 88 % 90 % 1006,0 hPa 0,0 l/m 1,1 km/h (1 Bft) S-SW 0,00 h 14,3 C 16,3 C 1,7 km/h (1 Bft)
28.07.2023 05:00 16,0 C 18,0 C 16,3 C 16,4 C 16,4 C 0,3 C 88 % 90 % 1005,9 hPa 0,0 l/m 1,3 km/h (1 Bft) SO 0,25 h 14,0 C 16,4 C 1,6 km/h (1 Bft)
28.07.2023 06:00 16,0 C 18,1 C 16,5 C 16,8 C 16,8 C 0,8 C 88 % 90 % 1006,1 hPa 0,0 l/m 0,3 km/h (0 Bft) N 0,08 h 14,0 C 16,8 C 0,0 km/h (0 Bft)
28.07.2023 07:00 16,1 C 18,1 C 16,9 C 17,4 C 17,4 C 1,3 C 88 % 90 % 1006,6 hPa 0,0 l/m 1,1 km/h (0 Bft) S-SO 0,00 h 14,2 C 17,4 C 2,8 km/h (1 Bft)
28.07.2023 08:00 16,8 C 18,2 C 17,4 C 18,2 C 18,2 C 1,4 C 88 % 90 % 1006,7 hPa 0,0 l/m 1,4 km/h (1 Bft) W-NW 0,00 h 14,8 C 18,2 C 2,7 km/h (1 Bft)
28.07.2023 09:00 17,8 C 18,2 C 18,1 C 19,8 C 19,8 C 2,0 C 88 % 90 % 1007,1 hPa 0,0 l/m 0,3 km/h (0 Bft) N 0,00 h 15,7 C 19,8 C 0,7 km/h (0 Bft)
28.07.2023 10:00 19,5 C 18,0 C 19,1 C 22,4 C 22,4 C 3,0 C 86 % 89 % 1007,5 hPa 0,0 l/m 0,2 km/h (0 Bft) N 0,08 h 17,1 C 22,4 C 0,0 km/h (0 Bft)
28.07.2023 11:00 20,6 C 18,0 C 20,0 C 23,8 C 23,8 C 3,3 C 82 % 84 % 1007,8 hPa 0,0 l/m 0,0 km/h (0 Bft) N 0,67 h 17,3 C 23,8 C 0,0 km/h (0 Bft)
28.07.2023 12:00 22,0 C 18,0 C 21,3 C 26,5 C 26,5 C 4,5 C 77 % 78 % 1008,0 hPa 0,0 l/m 0,0 km/h (0 Bft) N 0,92 h 17,7 C 26,5 C 0,0 km/h (0 Bft)
28.07.2023 13:00 22,9 C 18,1 C 22,3 C 26,4 C 26,4 C 3,5 C 72 % 73 % 1007,9 hPa 0,0 l/m 0,1 km/h (0 Bft) N 0,33 h 17,6 C 26,4 C 0,0 km/h (0 Bft)
28.07.2023 14:00 23,6 C 18,2 C 22,7 C 26,4 C 26,3 C 2,8 C 69 % 72 % 1008,0 hPa 0,0 l/m 0,2 km/h (0 Bft) N 0,52 h 17,6 C 26,3 C 2,0 km/h (1 Bft)
28.07.2023 15:00 23,3 C 18,4 C 22,5 C 25,6 C 25,6 C 2,4 C 72 % 77 % 1008,1 hPa 0,0 l/m 0,0 km/h (0 Bft) N 0,33 h 18,0 C 25,6 C 0,0 km/h (0 Bft)
28.07.2023 16:00 24,3 C 18,5 C 23,4 C 27,0 C 27,0 C 2,7 C 65 % 69 % 1007,8 hPa 0,0 l/m 0,0 km/h (0 Bft) N 0,27 h 17,4 C 27,0 C 0,0 km/h (0 Bft)
28.07.2023 17:00 23,9 C 18,6 C 22,7 C 24,6 C 24,6 C 0,8 C 70 % 76 % 1008,2 hPa 0,0 l/m 0,1 km/h (0 Bft) N 0,00 h 18,0 C 24,6 C 0,0 km/h (0 Bft)
28.07.2023 18:00 24,4 C 18,8 C 23,3 C 25,8 C 25,8 C 1,4 C 69 % 74 % 1008,1 hPa 0,0 l/m 0,0 km/h (0 Bft) N 0,00 h 18,3 C 25,8 C 0,0 km/h (0 Bft)
28.07.2023 19:00 23,7 C 18,9 C 22,3 C 23,9 C 23,9 C 0,2 C 68 % 73 % 1008,5 hPa 0,0 l/m 0,0 km/h (0 Bft) N 0,00 h 17,4 C 23,9 C 0,3 km/h (0 Bft)
28.07.2023 20:00 22,8 C 19,0 C 21,5 C 22,7 C 22,5 C 0,0 C 70 % 74 % 1008,4 hPa 0,0 l/m 0,0 km/h (0 Bft) N 0,00 h 17,1 C 22,5 C 0,0 km/h (0 Bft)
28.07.2023 21:00 21,9 C 19,0 C 20,6 C 21,6 C 21,0 C 0,0 C 72 % 75 % 1008,8 hPa 0,0 l/m 0,0 km/h (0 Bft) N 0,00 h 16,5 C 21,0 C 0,0 km/h (0 Bft)
28.07.2023 22:00 20,7 C 19,2 C 19,7 C 20,4 C 19,7 C 0,0 C 75 % 76 % 1009,2 hPa 0,0 l/m 0,0 km/h (0 Bft) N 0,00 h 16,1 C 19,7 C 0,0 km/h (0 Bft)
28.07.2023 23:00 19,8 C 19,2 C 18,6 C 19,5 C 18,8 C 0,0 C 78 % 80 % 1009,4 hPa 0,0 l/m 0,0 km/h (0 Bft) N 0,00 h 15,8 C 18,8 C 0,0 km/h (0 Bft)
29.07.2023 00:00 19,6 C 19,2 C 19,2 C 19,3 C 18,6 C 0,0 C 81 % 81 % 1009,8 hPa 0,0 l/m 0,0 km/h (0 Bft) N 0,00 h 16,3 C 18,6 C 0,0 km/h (0 Bft)
29.07.2023 01:00 19,6 C 19,2 C 19,2 C 19,5 C 19,1 C 0,0 C 82 % 81 % 1009,9 hPa 0,0 l/m 0,1 km/h (0 Bft) N 0,00 h 16,5 C 19,1 C 0,5 km/h (0 Bft)
29.07.2023 02:00 19,3 C 19,3 C 18,5 C 19,1 C 18,7 C 0,0 C 83 % 83 % 1009,6 hPa 0,0 l/m 0,0 km/h (0 Bft) N 0,00 h 16,3 C 18,7 C 0,0 km/h (0 Bft)
29.07.2023 03:00 18,8 C 19,3 C 18,0 C 18,5 C 18,0 C 0,0 C 84 % 85 % 1009,2 hPa 0,0 l/m 0,0 km/h (0 Bft) N 0,00 h 16,0 C 18,0 C 0,0 km/h (0 Bft)
29.07.2023 04:00 18,5 C 19,3 C 18,0 C 18,3 C 18,0 C 0,0 C 85 % 86 % 1009,2 hPa 0,0 l/m 0,1 km/h (0 Bft) N 0,00 h 15,9 C 18,0 C 0,1 km/h (0 Bft)
29.07.2023 05:00 18,8 C 19,2 C 18,5 C 18,8 C 18,8 C 0,0 C 85 % 84 % 1008,9 hPa 0,0 l/m 0,1 km/h (0 Bft) N 0,00 h 16,2 C 18,8 C 0,0 km/h (0 Bft)
29.07.2023 06:00 19,1 C 19,2 C 18,8 C 19,2 C 19,2 C 0,2 C 84 % 84 % 1008,7 hPa 0,0 l/m 0,0 km/h (0 Bft) N 0,00 h 16,4 C 19,2 C 0,3 km/h (0 Bft)
29.07.2023 07:00 19,7 C 19,1 C 19,3 C 20,7 C 20,7 C 1,0 C 84 % 83 % 1008,3 hPa 0,0 l/m 0,1 km/h (0 Bft) N 0,00 h 16,8 C 20,7 C 0,2 km/h (0 Bft)
29.07.2023 08:00 20,8 C 19,1 C 20,5 C 23,2 C 23,2 C 2,4 C 81 % 79 % 1008,5 hPa 0,0 l/m 0,1 km/h (0 Bft) N 0,33 h 17,4 C 23,2 C 1,1 km/h (1 Bft)
29.07.2023 09:00 22,4 C 19,1 C 21,7 C 25,7 C 25,7 C 3,3 C 74 % 74 % 1008,1 hPa 0,0 l/m 0,7 km/h (0 Bft) S 0,50 h 17,5 C 25,7 C 4,5 km/h (1 Bft)
29.07.2023 10:00 23,5 C 19,0 C 22,8 C 26,8 C 26,8 C 3,3 C 71 % 72 % 1007,6 hPa 0,0 l/m 0,2 km/h (0 Bft) N 0,68 h 17,8 C 26,8 C 0,4 km/h (0 Bft)
29.07.2023 11:00 23,6 C 19,1 C 23,1 C 26,8 C 26,8 C 3,2 C 68 % 68 % 1007,9 hPa 0,0 l/m 0,0 km/h (0 Bft) N 0,50 h 17,4 C 26,8 C 0,0 km/h (0 Bft)
29.07.2023 12:00 23,4 C 19,2 C 23,1 C 26,8 C 26,8 C 3,4 C 68 % 67 % 1007,9 hPa 0,0 l/m 0,0 km/h (0 Bft) N 0,73 h 17,2 C 26,8 C 0,0 km/h (0 Bft)
29.07.2023 13:00 23,1 C 19,3 C 22,9 C 26,8 C 26,8 C 3,7 C 71 % 68 % 1007,7 hPa 0,0 l/m 0,0 km/h (0 Bft) N 1,00 h 17,5 C 26,8 C 0,0 km/h (0 Bft)
29.07.2023 14:00 23,3 C 19,4 C 24,0 C 26,8 C 26,8 C 3,5 C 71 % 68 % 1007,4 hPa 0,0 l/m 0,0 km/h (0 Bft) N 0,83 h 17,8 C 26,8 C 0,0 km/h (0 Bft)
29.07.2023 15:00 24,4 C 19,4 C 25,6 C 26,8 C 26,8 C 2,4 C 67 % 60 % 1007,2 hPa 0,0 l/m 0,0 km/h (0 Bft) N 0,00 h 17,9 C 26,8 C 0,0 km/h (0 Bft)
29.07.2023 16:00 25,3 C 19,5 C 25,6 C 26,8 C 26,8 C 1,5 C 62 % 58 % 1006,8 hPa 0,0 l/m 0,0 km/h (0 Bft) N 0,00 h 17,4 C 26,8 C 0,0 km/h (0 Bft)
29.07.2023 17:00 25,1 C 19,6 C 24,3 C 26,8 C 26,8 C 1,7 C 59 % 58 % 1006,7 hPa 2,1 l/m 0,0 km/h (0 Bft) N 0,08 h 16,6 C 26,8 C 0,0 km/h (0 Bft)
29.07.2023 18:00 18,6 C 20,2 C 17,1 C 26,8 C 26,8 C 8,2 C 78 % 88 % 1008,2 hPa 5,5 l/m 0,0 km/h (0 Bft) N 1,00 h 14,7 C 26,8 C 0,0 km/h (0 Bft)
29.07.2023 19:00 18,2 C 20,2 C 18,3 C 23,0 C 23,0 C 4,9 C 87 % 90 % 1008,3 hPa 0,0 l/m 0,0 km/h (0 Bft) N 0,50 h 15,9 C 23,0 C 0,0 km/h (0 Bft)
29.07.2023 20:00 17,5 C 20,2 C 17,2 C 17,5 C 17,3 C 0,2 C 87 % 90 % 1008,9 hPa 0,0 l/m 0,0 km/h (0 Bft) N 0,00 h 15,3 C 17,3 C 0,0 km/h (0 Bft)
29.07.2023 21:00 16,3 C 20,1 C 16,2 C 16,2 C 15,9 C 0,0 C 88 % 90 % 1009,1 hPa 0,0 l/m 0,0 km/h (0 Bft) N 0,00 h 14,3 C 15,9 C 0,0 km/h (0 Bft)
29.07.2023 22:00 15,5 C 20,0 C 15,7 C 15,5 C 15,4 C 0,0 C 88 % 90 % 1009,3 hPa 0,0 l/m 0,0 km/h (0 Bft) N 0,00 h 13,5 C 15,4 C 0,0 km/h (0 Bft)
29.07.2023 23:00 15,0 C 19,9 C 15,5 C 15,3 C 15,3 C 0,3 C 88 % 90 % 1009,3 hPa 0,0 l/m 0,0 km/h (0 Bft) N 0,00 h 13,0 C 15,3 C 0,0 km/h (0 Bft)
30.07.2023 00:00 14,5 C 19,7 C 15,0 C 14,8 C 14,8 C 0,4 C 88 % 90 % 1009,5 hPa 0,0 l/m 0,0 km/h (0 Bft) N 0,00 h 12,5 C 14,8 C 0,0 km/h (0 Bft)
30.07.2023 01:00 14,0 C 19,6 C 14,9 C 14,7 C 14,7 C 0,7 C 88 % 90 % 1009,5 hPa 0,0 l/m 0,0 km/h (0 Bft) N 0,00 h 12,0 C 14,7 C 0,0 km/h (0 Bft)
30.07.2023 02:00 13,6 C 19,5 C 14,7 C 14,5 C 14,5 C 0,9 C 88 % 90 % 1009,3 hPa 0,0 l/m 0,0 km/h (0 Bft) N 0,00 h 11,6 C 14,5 C 0,0 km/h (0 Bft)
30.07.2023 03:00 13,6 C 19,3 C 14,9 C 14,8 C 14,8 C 1,2 C 89 % 90 % 1009,2 hPa 0,7 l/m 0,0 km/h (0 Bft) N 0,00 h 11,8 C 14,8 C 0,0 km/h (0 Bft)
30.07.2023 04:00 14,2 C 19,3 C 15,6 C 15,6 C 15,6 C 1,4 C 89 % 90 % 1009,4 hPa 0,0 l/m 0,0 km/h (0 Bft) N 0,00 h 12,4 C 15,6 C 0,0 km/h (0 Bft)
30.07.2023 05:00 14,3 C 19,2 C 15,6 C 15,5 C 15,5 C 1,1 C 89 % 90 % 1009,5 hPa 0,0 l/m 0,0 km/h (0 Bft) N 0,25 h 12,5 C 15,5 C 0,0 km/h (0 Bft)
30.07.2023 06:00 14,5 C 19,2 C 15,8 C 15,9 C 15,9 C 1,4 C 89 % 90 % 1009,4 hPa 0,0 l/m 0,0 km/h (0 Bft) N 0,67 h 12,7 C 15,9 C 0,0 km/h (0 Bft)
30.07.2023 07:00 15,1 C 19,2 C 16,5 C 16,8 C 16,8 C 1,7 C 89 % 90 % 1009,7 hPa 0,0 l/m 0,0 km/h (0 Bft) N 0,00 h 13,3 C 16,8 C 0,0 km/h (0 Bft)
30.07.2023 08:00 16,7 C 19,2 C 17,6 C 20,3 C 20,3 C 3,6 C 89 % 90 % 1010,1 hPa 0,0 l/m 0,0 km/h (0 Bft) N 0,83 h 14,9 C 20,3 C 0,0 km/h (0 Bft)
30.07.2023 09:00 17,3 C 19,1 C 18,4 C 22,6 C 22,6 C 5,3 C 89 % 90 % 1010,3 hPa 0,0 l/m 0,1 km/h (0 Bft) N 1,00 h 15,5 C 22,6 C 0,4 km/h (0 Bft)
30.07.2023 10:00 17,8 C 18,9 C 19,3 C 25,6 C 25,6 C 7,8 C 90 % 90 % 1010,3 hPa 0,0 l/m 0,2 km/h (0 Bft) N 1,00 h 16,1 C 25,6 C 1,0 km/h (0 Bft)
30.07.2023 11:00 18,6 C 18,7 C 19,9 C 25,9 C 25,9 C 7,2 C 89 % 90 % 1010,3 hPa 0,0 l/m 0,1 km/h (0 Bft) N 1,00 h 16,8 C 25,9 C 1,2 km/h (1 Bft)
30.07.2023 12:00 21,6 C 18,7 C 21,0 C 26,5 C 26,5 C 4,9 C 78 % 79 % 1010,3 hPa 0,0 l/m 0,1 km/h (0 Bft) N 1,00 h 17,5 C 26,5 C 0,6 km/h (0 Bft)
30.07.2023 13:00 24,9 C 18,7 C 23,1 C 30,4 C 30,4 C 5,5 C 59 % 63 % 1010,1 hPa 0,0 l/m 0,1 km/h (0 Bft) N 1,00 h 16,4 C 30,4 C 0,0 km/h (0 Bft)
30.07.2023 14:00 25,6 C 18,8 C 24,4 C 30,4 C 30,4 C 4,8 C 56 % 60 % 1009,9 hPa 0,0 l/m 0,0 km/h (0 Bft) N 1,00 h 16,1 C 30,4 C 0,0 km/h (0 Bft)
30.07.2023 15:00 25,0 C 18,9 C 23,9 C 27,7 C 27,7 C 2,7 C 54 % 57 % 1009,8 hPa 0,0 l/m 0,1 km/h (0 Bft) N 0,25 h 15,1 C 27,7 C 1,2 km/h (1 Bft)
30.07.2023 16:00 20,0 C 19,4 C 18,8 C 20,7 C 20,6 C 0,8 C 77 % 83 % 1010,8 hPa 4,1 l/m 0,4 km/h (0 Bft) N 0,00 h 15,5 C 20,6 C 1,0 km/h (0 Bft)
30.07.2023 17:00 16,6 C 19,4 C 16,3 C 17,5 C 17,5 C 0,9 C 86 % 90 % 1012,0 hPa 0,0 l/m 0,0 km/h (0 Bft) N 0,00 h 14,3 C 17,5 C 0,0 km/h (0 Bft)
30.07.2023 18:00 16,8 C 19,2 C 16,4 C 19,0 C 19,0 C 2,2 C 86 % 90 % 1011,9 hPa 0,0 l/m 0,0 km/h (0 Bft) N 0,00 h 14,4 C 19,0 C 0,0 km/h (0 Bft)
30.07.2023 19:00 17,1 C 19,1 C 16,2 C 18,8 C 18,8 C 1,7 C 84 % 90 % 1012,1 hPa 0,0 l/m 0,0 km/h (0 Bft) N 0,08 h 14,4 C 18,8 C 0,0 km/h (0 Bft)
30.07.2023 20:00 17,3 C 18,9 C 15,6 C 17,6 C 17,4 C 0,3 C 79 % 90 % 1012,4 hPa 0,0 l/m 0,0 km/h (0 Bft) N 0,00 h 13,6 C 17,4 C 0,0 km/h (0 Bft)
30.07.2023 21:00 16,4 C 19,0 C 14,7 C 16,0 C 15,1 C 0,0 C 79 % 90 % 1013,1 hPa 0,0 l/m 0,0 km/h (0 Bft) N 0,00 h 12,7 C 15,1 C 0,0 km/h (0 Bft)
30.07.2023 22:00 14,9 C 19,0 C 13,7 C 14,4 C 13,4 C 0,0 C 82 % 90 % 1013,4 hPa 0,0 l/m 0,0 km/h (0 Bft) N 0,00 h 11,8 C 13,4 C 0,0 km/h (0 Bft)
30.07.2023 23:00 14,0 C 18,9 C 13,1 C 13,7 C 13,0 C 0,0 C 84 % 90 % 1013,2 hPa 0,0 l/m 0,0 km/h (0 Bft) N 0,00 h 11,4 C 13,0 C 0,0 km/h (0 Bft)
Min-Datum _ 27.07.23 27.07.23 27.07.23 27.07.23 27.07.23 24.07.23 24.07.23 24.07.23 24.07.23 - 24.07.23 - - 27.07.23 27.07.23 24.07.23
_ Min-Zeit 05:45 07:42 05:50 05:30 05:25 00:05 18:55 18:32 19:40 - 00:00 - - 05:30 05:25 00:00
Minimum _ 10,9 C 16,4 C 10,4 C 10,6 C 9,9 C 0,0 C 51 % 48 % 1002,6 hPa - 0,0 km/h (0 Bft) - - 8,6 C 9,9 C 0,0 km/h (0 Bft)
Max-Datum _ 24.07.23 24.07.23 24.07.23 30.07.23 30.07.23 26.07.23 30.07.23 24.07.23 26.07.23 29.07.23 24.07.23 - 28.07.23 28.07.23 30.07.23 24.07.23
_ Max-Zeit 17:35 21:00 17:30 14:55 14:55 08:41 10:27 21:35 23:40 18:11 14:26 - 12:32 17:45 14:55 14:42
Maximum _ 26,8 C 21,0 C 26,9 C 31,9 C 31,9 C 10,2 C 90 % 90 % 1015,4 hPa 5,5 l/m 6,8 km/h
S-SO (2 Bft)
- 0,35 h 18,8 C 31,9 C 26,4 km/h
S-SO (4 Bft)
Durchschnitt _ 18,0 C 18,6 C 17,7 C 19,5 C 19,3 C 1,5 C 77 % 78 % 1009,2 hPa #31,6 l/m 0,3 km/h (0 Bft) S #29:43 h 13,8 C 19,3 C 0,7 km/h (0 Bft)
2023 www.wetterstation-wechselburg.de